<?xml version='1.0' encoding='UTF-8'?>
<gpx xmlns="http://www.topografix.com/GPX/1/1" creator="www.balnam.be" version="1.1" xmlns:xsi="http://www.w3.org/2001/XMLSchema-instance" xsi:schemaLocation="http://www.topografix.com/GPX/1/1 http://www.topografix.com/GPX/1/1/gpx.xsd">
<trk>
<name>hhshsL78A</name>
<cmt>q</cmt>
<desc>Hensies Chemin n°L78A </desc>
<link href="https://chemins.be/hensies/chemin/L78A"/><trkseg>
<trkpt lat="50.452563" lon="3.685949"><time>2026-05-02T21:48:50Z</time></trkpt>
<trkpt lat="50.452888" lon="3.686085"><time>2026-05-02T21:58:50Z</time></trkpt>
<trkpt lat="50.453212" lon="3.686151"><time>2026-05-02T22:08:50Z</time></trkpt>
<trkpt lat="50.453553" lon="3.686062"><time>2026-05-02T22:18:50Z</time></trkpt>
<trkpt lat="50.453947" lon="3.685831"><time>2026-05-02T22:28:50Z</time></trkpt>
<trkpt lat="50.454287" lon="3.685516"><time>2026-05-02T22:38:50Z</time></trkpt>
<trkpt lat="50.454447" lon="3.685176"><time>2026-05-02T22:48:50Z</time></trkpt>
<trkpt lat="50.454614" lon="3.684652"><time>2026-05-02T22:58:50Z</time></trkpt>
<trkpt lat="50.454710" lon="3.684045"><time>2026-05-02T23:08:50Z</time></trkpt>
<trkpt lat="50.454661" lon="3.683455"><time>2026-05-02T23:18:50Z</time></trkpt>
<trkpt lat="50.454288" lon="3.681136"><time>2026-05-02T23:28:50Z</time></trkpt>
<trkpt lat="50.453855" lon="3.677791"><time>2026-05-02T23:38:50Z</time></trkpt>
<trkpt lat="50.453825" lon="3.675876"><time>2026-05-02T23:48:50Z</time></trkpt>
<trkpt lat="50.454018" lon="3.673494"><time>2026-05-02T23:58:50Z</time></trkpt>
<trkpt lat="50.454246" lon="3.672491"><time>2026-05-03T00:08:50Z</time></trkpt>
<trkpt lat="50.454587" lon="3.670951"><time>2026-05-03T00:18:50Z</time></trkpt>
<trkpt lat="50.455365" lon="3.668686"><time>2026-05-03T00:28:50Z</time></trkpt>
<trkpt lat="50.456007" lon="3.667958"><time>2026-05-03T00:38:50Z</time></trkpt>
<trkpt lat="50.457225" lon="3.667053"><time>2026-05-03T00:48:50Z</time></trkpt>
<trkpt lat="50.459177" lon="3.665714"><time>2026-05-03T00:58:50Z</time></trkpt>
<trkpt lat="50.460641" lon="3.664016"><time>2026-05-03T01:08:50Z</time></trkpt>
<trkpt lat="50.462147" lon="3.661910"><time>2026-05-03T01:18:50Z</time></trkpt>
<trkpt lat="50.462974" lon="3.660040"><time>2026-05-03T01:28:50Z</time></trkpt>
</trkseg></trk>
<trk>
<name>hhshsL78A</name>
<cmt>v</cmt>
<desc>Hensies Chemin n°L78A </desc>
<link href="https://chemins.be/hensies/chemin/L78A"/><trkseg>
<trkpt lat="50.462974" lon="3.660040"><time>2026-05-03T01:28:50Z</time></trkpt>
<trkpt lat="50.463053" lon="3.659804"><time>2026-05-03T01:38:50Z</time></trkpt>
</trkseg>
</trk>
</gpx>